Terminal Aerodrome Forecast
Issued by NWS

Home | Current Version | Previous Version | Text Only | Print | Product List | Glossary On
Versions: 1 2 3 4 5 6 7 8 9 10 11 12 13
000
FTUS46 KSEW 271123
TAFBLI
TAF
KBLI 271123Z 2712/2812 17006KT P6SM VCSH OVC035
      TEMPO 2712/2715 -SHRA
     FM271500 17010KT P6SM VCSH OVC030
     FM272000 16010KT P6SM VCSH BKN035
     FM280500 15008KT P6SM OVC030=

USA.gov is the U.S. government's official web portal to all federal, state and local government web resources and services.